sensor_id;sensor_type;location;lat;lon;timestamp;P1;durP1;ratioP1;P2;durP2;ratioP2
23588;SDS011;11972;48.078;11.876;2023-02-28T00:00:31;5.18;;;2.53;;
23588;SDS011;11972;48.078;11.876;2023-02-28T00:04:31;2.92;;;2.20;;
23588;SDS011;11972;48.078;11.876;2023-02-28T00:08:32;3.67;;;2.35;;
23588;SDS011;11972;48.078;11.876;2023-02-28T00:12:33;3.05;;;1.90;;
23588;SDS011;11972;48.078;11.876;2023-02-28T00:16:34;4.57;;;2.40;;
23588;SDS011;11972;48.078;11.876;2023-02-28T00:20:34;2.53;;;2.33;;
23588;SDS011;11972;48.078;11.876;2023-02-28T00:24:35;3.10;;;2.45;;
23588;SDS011;11972;48.078;11.876;2023-02-28T00:28:35;3.10;;;2.33;;
23588;SDS011;11972;48.078;11.876;2023-02-28T00:32:35;2.67;;;2.47;;
23588;SDS011;11972;48.078;11.876;2023-02-28T00:36:36;3.17;;;2.28;;
23588;SDS011;11972;48.078;11.876;2023-02-28T00:40:36;2.65;;;2.40;;
23588;SDS011;11972;48.078;11.876;2023-02-28T00:44:36;3.05;;;2.53;;
23588;SDS011;11972;48.078;11.876;2023-02-28T00:48:37;3.10;;;2.80;;
23588;SDS011;11972;48.078;11.876;2023-02-28T00:52:37;3.67;;;2.70;;
23588;SDS011;11972;48.078;11.876;2023-02-28T00:56:38;3.90;;;2.65;;
23588;SDS011;11972;48.078;11.876;2023-02-28T01:00:38;5.22;;;3.40;;
23588;SDS011;11972;48.078;11.876;2023-02-28T01:04:38;2.95;;;2.25;;
23588;SDS011;11972;48.078;11.876;2023-02-28T01:08:38;3.10;;;2.80;;
23588;SDS011;11972;48.078;11.876;2023-02-28T01:12:39;2.83;;;2.53;;
23588;SDS011;11972;48.078;11.876;2023-02-28T01:16:39;3.13;;;2.78;;
23588;SDS011;11972;48.078;11.876;2023-02-28T01:20:40;3.53;;;2.58;;
23588;SDS011;11972;48.078;11.876;2023-02-28T01:24:40;2.80;;;2.55;;
23588;SDS011;11972;48.078;11.876;2023-02-28T01:28:40;2.60;;;2.40;;
23588;SDS011;11972;48.078;11.876;2023-02-28T01:32:41;3.70;;;3.00;;
23588;SDS011;11972;48.078;11.876;2023-02-28T01:36:41;3.28;;;2.92;;
23588;SDS011;11972;48.078;11.876;2023-02-28T01:40:42;3.05;;;2.70;;
23588;SDS011;11972;48.078;11.876;2023-02-28T01:49:15;3.03;;;2.72;;
23588;SDS011;11972;48.078;11.876;2023-02-28T01:53:19;3.28;;;2.97;;
23588;SDS011;11972;48.078;11.876;2023-02-28T01:57:25;3.10;;;2.60;;
23588;SDS011;11972;48.078;11.876;2023-02-28T02:01:29;3.95;;;3.10;;
23588;SDS011;11972;48.078;11.876;2023-02-28T02:05:31;2.97;;;2.70;;
23588;SDS011;11972;48.078;11.876;2023-02-28T02:09:31;5.45;;;3.03;;
23588;SDS011;11972;48.078;11.876;2023-02-28T02:40:27;4.97;;;3.33;;
23588;SDS011;11972;48.078;11.876;2023-02-28T02:44:57;4.22;;;3.83;;
23588;SDS011;11972;48.078;11.876;2023-02-28T02:49:13;4.55;;;3.85;;
23588;SDS011;11972;48.078;11.876;2023-02-28T02:53:21;4.70;;;4.07;;
23588;SDS011;11972;48.078;11.876;2023-02-28T02:57:33;4.57;;;4.05;;
23588;SDS011;11972;48.078;11.876;2023-02-28T03:01:38;4.80;;;4.30;;
23588;SDS011;11972;48.078;11.876;2023-02-28T03:05:50;5.97;;;4.30;;
23588;SDS011;11972;48.078;11.876;2023-02-28T03:09:55;4.65;;;4.15;;
23588;SDS011;11972;48.078;11.876;2023-02-28T03:14:10;4.97;;;4.40;;
23588;SDS011;11972;48.078;11.876;2023-02-28T03:18:36;5.70;;;3.97;;
23588;SDS011;11972;48.078;11.876;2023-02-28T03:22:42;5.50;;;4.65;;
23588;SDS011;11972;48.078;11.876;2023-02-28T03:26:52;5.20;;;4.35;;
23588;SDS011;11972;48.078;11.876;2023-02-28T03:31:02;6.78;;;5.57;;
23588;SDS011;11972;48.078;11.876;2023-02-28T03:35:19;5.95;;;4.88;;
23588;SDS011;11972;48.078;11.876;2023-02-28T03:39:23;5.82;;;4.88;;
23588;SDS011;11972;48.078;11.876;2023-02-28T03:52:00;7.13;;;5.65;;
23588;SDS011;11972;48.078;11.876;2023-02-28T04:00:45;6.97;;;5.70;;
23588;SDS011;11972;48.078;11.876;2023-02-28T04:04:49;6.95;;;5.68;;
23588;SDS011;11972;48.078;11.876;2023-02-28T04:08:51;8.02;;;6.00;;
23588;SDS011;11972;48.078;11.876;2023-02-28T04:12:51;7.70;;;5.70;;
23588;SDS011;11972;48.078;11.876;2023-02-28T04:16:51;9.40;;;6.22;;
23588;SDS011;11972;48.078;11.876;2023-02-28T04:20:52;9.48;;;6.60;;
23588;SDS011;11972;48.078;11.876;2023-02-28T04:24:52;7.82;;;6.20;;
23588;SDS011;11972;48.078;11.876;2023-02-28T04:28:54;10.20;;;6.95;;
23588;SDS011;11972;48.078;11.876;2023-02-28T04:32:54;10.98;;;6.63;;
23588;SDS011;11972;48.078;11.876;2023-02-28T04:36:55;8.20;;;6.32;;
23588;SDS011;11972;48.078;11.876;2023-02-28T04:40:59;7.07;;;6.35;;
23588;SDS011;11972;48.078;11.876;2023-02-28T04:45:00;8.55;;;6.45;;
23588;SDS011;11972;48.078;11.876;2023-02-28T04:49:02;9.30;;;6.50;;
23588;SDS011;11972;48.078;11.876;2023-02-28T04:53:03;9.10;;;6.88;;
23588;SDS011;11972;48.078;11.876;2023-02-28T04:57:03;8.93;;;7.63;;
23588;SDS011;11972;48.078;11.876;2023-02-28T05:01:05;6.22;;;5.63;;
23588;SDS011;11972;48.078;11.876;2023-02-28T05:05:12;7.75;;;5.97;;
23588;SDS011;11972;48.078;11.876;2023-02-28T05:09:17;8.40;;;5.85;;
23588;SDS011;11972;48.078;11.876;2023-02-28T05:13:18;9.30;;;6.82;;
23588;SDS011;11972;48.078;11.876;2023-02-28T05:17:18;10.27;;;7.72;;
23588;SDS011;11972;48.078;11.876;2023-02-28T05:21:29;9.50;;;7.45;;
23588;SDS011;11972;48.078;11.876;2023-02-28T05:25:31;10.35;;;8.40;;
23588;SDS011;11972;48.078;11.876;2023-02-28T05:29:32;9.93;;;7.63;;
23588;SDS011;11972;48.078;11.876;2023-02-28T05:33:32;9.98;;;7.13;;
23588;SDS011;11972;48.078;11.876;2023-02-28T05:37:32;8.00;;;6.32;;
23588;SDS011;11972;48.078;11.876;2023-02-28T05:41:33;12.50;;;8.60;;
23588;SDS011;11972;48.078;11.876;2023-02-28T05:45:33;12.00;;;8.20;;
23588;SDS011;11972;48.078;11.876;2023-02-28T05:49:33;11.38;;;9.13;;
23588;SDS011;11972;48.078;11.876;2023-02-28T05:53:34;15.45;;;9.05;;
23588;SDS011;11972;48.078;11.876;2023-02-28T05:57:35;13.00;;;10.23;;
23588;SDS011;11972;48.078;11.876;2023-02-28T06:01:36;10.63;;;8.90;;
23588;SDS011;11972;48.078;11.876;2023-02-28T06:05:40;14.55;;;9.52;;
23588;SDS011;11972;48.078;11.876;2023-02-28T06:09:40;11.55;;;9.15;;
23588;SDS011;11972;48.078;11.876;2023-02-28T06:13:41;11.88;;;8.75;;
23588;SDS011;11972;48.078;11.876;2023-02-28T06:17:41;13.07;;;9.68;;
23588;SDS011;11972;48.078;11.876;2023-02-28T06:21:42;11.88;;;9.00;;
23588;SDS011;11972;48.078;11.876;2023-02-28T06:25:46;12.55;;;9.60;;
23588;SDS011;11972;48.078;11.876;2023-02-28T06:29:47;12.88;;;10.05;;
23588;SDS011;11972;48.078;11.876;2023-02-28T06:33:47;12.82;;;9.73;;
23588;SDS011;11972;48.078;11.876;2023-02-28T06:37:48;12.00;;;9.57;;
23588;SDS011;11972;48.078;11.876;2023-02-28T06:41:48;12.95;;;10.30;;
23588;SDS011;11972;48.078;11.876;2023-02-28T06:45:48;12.38;;;9.77;;
23588;SDS011;11972;48.078;11.876;2023-02-28T06:49:49;12.05;;;9.75;;
23588;SDS011;11972;48.078;11.876;2023-02-28T06:53:50;12.85;;;10.15;;
23588;SDS011;11972;48.078;11.876;2023-02-28T06:57:50;12.48;;;9.82;;
23588;SDS011;11972;48.078;11.876;2023-02-28T07:01:51;12.85;;;10.57;;
23588;SDS011;11972;48.078;11.876;2023-02-28T07:05:52;11.80;;;9.75;;
23588;SDS011;11972;48.078;11.876;2023-02-28T07:09:52;11.60;;;10.15;;
23588;SDS011;11972;48.078;11.876;2023-02-28T07:13:53;11.23;;;9.82;;
23588;SDS011;11972;48.078;11.876;2023-02-28T07:17:54;12.23;;;10.45;;
23588;SDS011;11972;48.078;11.876;2023-02-28T07:21:54;13.27;;;9.45;;
23588;SDS011;11972;48.078;11.876;2023-02-28T07:25:55;12.20;;;10.02;;
23588;SDS011;11972;48.078;11.876;2023-02-28T07:29:55;12.75;;;9.80;;
23588;SDS011;11972;48.078;11.876;2023-02-28T07:33:55;12.90;;;10.27;;
23588;SDS011;11972;48.078;11.876;2023-02-28T07:37:59;12.82;;;9.80;;
23588;SDS011;11972;48.078;11.876;2023-02-28T07:42:00;13.90;;;10.05;;
23588;SDS011;11972;48.078;11.876;2023-02-28T07:46:04;12.30;;;10.13;;
23588;SDS011;11972;48.078;11.876;2023-02-28T07:50:06;14.57;;;10.52;;
23588;SDS011;11972;48.078;11.876;2023-02-28T07:54:08;12.80;;;9.43;;
23588;SDS011;11972;48.078;11.876;2023-02-28T07:58:08;12.88;;;10.45;;
23588;SDS011;11972;48.078;11.876;2023-02-28T08:02:11;11.20;;;9.77;;
23588;SDS011;11972;48.078;11.876;2023-02-28T08:06:18;13.10;;;9.73;;
23588;SDS011;11972;48.078;11.876;2023-02-28T08:10:20;13.57;;;9.73;;
23588;SDS011;11972;48.078;11.876;2023-02-28T08:14:21;13.93;;;11.00;;
23588;SDS011;11972;48.078;11.876;2023-02-28T08:18:22;11.95;;;9.95;;
23588;SDS011;11972;48.078;11.876;2023-02-28T08:22:23;12.00;;;9.82;;
23588;SDS011;11972;48.078;11.876;2023-02-28T08:26:23;11.45;;;9.45;;
23588;SDS011;11972;48.078;11.876;2023-02-28T08:30:23;14.55;;;11.07;;
23588;SDS011;11972;48.078;11.876;2023-02-28T08:34:24;11.43;;;10.18;;
23588;SDS011;11972;48.078;11.876;2023-02-28T08:38:24;11.82;;;10.15;;
23588;SDS011;11972;48.078;11.876;2023-02-28T08:42:24;13.27;;;9.70;;
23588;SDS011;11972;48.078;11.876;2023-02-28T08:46:25;12.52;;;10.30;;
23588;SDS011;11972;48.078;11.876;2023-02-28T08:50:25;11.63;;;10.27;;
23588;SDS011;11972;48.078;11.876;2023-02-28T08:54:25;13.93;;;10.27;;
23588;SDS011;11972;48.078;11.876;2023-02-28T08:58:26;11.05;;;9.95;;
23588;SDS011;11972;48.078;11.876;2023-02-28T09:02:27;13.85;;;10.10;;
23588;SDS011;11972;48.078;11.876;2023-02-28T09:06:27;11.20;;;9.70;;
23588;SDS011;11972;48.078;11.876;2023-02-28T09:10:28;11.90;;;10.57;;
23588;SDS011;11972;48.078;11.876;2023-02-28T09:14:28;13.23;;;10.40;;
23588;SDS011;11972;48.078;11.876;2023-02-28T09:18:28;12.13;;;10.25;;
23588;SDS011;11972;48.078;11.876;2023-02-28T09:22:29;13.23;;;10.40;;
23588;SDS011;11972;48.078;11.876;2023-02-28T09:26:29;12.98;;;10.45;;
23588;SDS011;11972;48.078;11.876;2023-02-28T09:30:30;11.77;;;10.43;;
23588;SDS011;11972;48.078;11.876;2023-02-28T09:34:30;13.00;;;10.68;;
23588;SDS011;11972;48.078;11.876;2023-02-28T09:38:31;12.02;;;10.73;;
23588;SDS011;11972;48.078;11.876;2023-02-28T09:42:32;11.68;;;10.48;;
23588;SDS011;11972;48.078;11.876;2023-02-28T09:46:40;13.10;;;11.15;;
23588;SDS011;11972;48.078;11.876;2023-02-28T09:50:46;11.98;;;10.50;;
23588;SDS011;11972;48.078;11.876;2023-02-28T09:54:51;14.68;;;10.80;;
23588;SDS011;11972;48.078;11.876;2023-02-28T09:58:57;11.07;;;9.07;;
23588;SDS011;11972;48.078;11.876;2023-02-28T10:03:06;12.82;;;10.05;;
23588;SDS011;11972;48.078;11.876;2023-02-28T10:12:11;13.10;;;10.80;;
23588;SDS011;11972;48.078;11.876;2023-02-28T10:16:18;12.63;;;10.50;;
23588;SDS011;11972;48.078;11.876;2023-02-28T10:20:24;13.02;;;10.57;;
23588;SDS011;11972;48.078;11.876;2023-02-28T10:24:41;11.85;;;10.65;;
23588;SDS011;11972;48.078;11.876;2023-02-28T10:28:43;11.57;;;10.48;;
23588;SDS011;11972;48.078;11.876;2023-02-28T10:32:49;13.32;;;10.15;;
23588;SDS011;11972;48.078;11.876;2023-02-28T10:36:50;12.07;;;10.80;;
23588;SDS011;11972;48.078;11.876;2023-02-28T10:40:51;13.32;;;11.65;;
23588;SDS011;11972;48.078;11.876;2023-02-28T10:45:12;14.57;;;11.40;;
23588;SDS011;11972;48.078;11.876;2023-02-28T10:49:23;13.95;;;12.05;;
23588;SDS011;11972;48.078;11.876;2023-02-28T10:53:32;12.82;;;11.20;;
23588;SDS011;11972;48.078;11.876;2023-02-28T10:57:39;12.50;;;10.55;;
23588;SDS011;11972;48.078;11.876;2023-02-28T11:01:40;13.50;;;11.43;;
23588;SDS011;11972;48.078;11.876;2023-02-28T11:05:43;14.18;;;11.07;;
23588;SDS011;11972;48.078;11.876;2023-02-28T11:09:50;14.18;;;10.88;;
23588;SDS011;11972;48.078;11.876;2023-02-28T11:13:53;14.70;;;11.48;;
23588;SDS011;11972;48.078;11.876;2023-02-28T11:17:59;11.90;;;10.13;;
23588;SDS011;11972;48.078;11.876;2023-02-28T11:22:06;14.73;;;11.32;;
23588;SDS011;11972;48.078;11.876;2023-02-28T11:26:07;11.50;;;10.38;;
23588;SDS011;11972;48.078;11.876;2023-02-28T11:30:53;12.35;;;10.60;;
23588;SDS011;11972;48.078;11.876;2023-02-28T11:34:39;11.48;;;10.30;;
23588;SDS011;11972;48.078;11.876;2023-02-28T11:38:41;12.05;;;10.82;;
23588;SDS011;11972;48.078;11.876;2023-02-28T11:47:17;13.25;;;11.70;;
23588;SDS011;11972;48.078;11.876;2023-02-28T11:51:53;12.15;;;10.85;;
23588;SDS011;11972;48.078;11.876;2023-02-28T11:56:17;12.25;;;10.95;;
23588;SDS011;11972;48.078;11.876;2023-02-28T12:09:20;11.93;;;10.73;;
23588;SDS011;11972;48.078;11.876;2023-02-28T12:30:38;12.88;;;11.10;;
23588;SDS011;11972;48.078;11.876;2023-02-28T12:34:55;12.35;;;10.52;;
23588;SDS011;11972;48.078;11.876;2023-02-28T12:39:07;12.63;;;11.43;;
23588;SDS011;11972;48.078;11.876;2023-02-28T12:43:13;12.10;;;10.85;;
23588;SDS011;11972;48.078;11.876;2023-02-28T12:47:17;13.18;;;10.93;;
23588;SDS011;11972;48.078;11.876;2023-02-28T12:51:18;12.75;;;10.98;;
23588;SDS011;11972;48.078;11.876;2023-02-28T12:55:21;12.20;;;11.00;;
23588;SDS011;11972;48.078;11.876;2023-02-28T13:12:22;12.80;;;10.88;;
23588;SDS011;11972;48.078;11.876;2023-02-28T13:16:22;12.38;;;10.90;;
23588;SDS011;11972;48.078;11.876;2023-02-28T13:20:25;14.63;;;11.07;;
23588;SDS011;11972;48.078;11.876;2023-02-28T13:24:50;11.55;;;10.25;;
23588;SDS011;11972;48.078;11.876;2023-02-28T13:45:30;11.88;;;9.70;;
23588;SDS011;11972;48.078;11.876;2023-02-28T13:49:38;10.65;;;9.55;;
23588;SDS011;11972;48.078;11.876;2023-02-28T13:53:41;14.23;;;10.55;;
23588;SDS011;11972;48.078;11.876;2023-02-28T13:58:09;13.02;;;10.25;;
23588;SDS011;11972;48.078;11.876;2023-02-28T14:06:51;11.20;;;10.00;;
23588;SDS011;11972;48.078;11.876;2023-02-28T14:11:05;11.38;;;10.05;;
23588;SDS011;11972;48.078;11.876;2023-02-28T14:19:38;11.60;;;10.27;;
23588;SDS011;11972;48.078;11.876;2023-02-28T14:23:56;10.50;;;9.50;;
23588;SDS011;11972;48.078;11.876;2023-02-28T14:32:41;12.13;;;9.02;;
23588;SDS011;11972;48.078;11.876;2023-02-28T14:36:48;10.82;;;9.18;;
23588;SDS011;11972;48.078;11.876;2023-02-28T14:40:50;10.60;;;9.50;;
23588;SDS011;11972;48.078;11.876;2023-02-28T14:44:53;10.98;;;9.93;;
23588;SDS011;11972;48.078;11.876;2023-02-28T14:48:56;11.98;;;10.15;;
23588;SDS011;11972;48.078;11.876;2023-02-28T14:52:56;11.98;;;10.15;;
23588;SDS011;11972;48.078;11.876;2023-02-28T14:56:57;11.18;;;9.75;;
23588;SDS011;11972;48.078;11.876;2023-02-28T15:00:59;10.50;;;9.48;;
23588;SDS011;11972;48.078;11.876;2023-02-28T15:05:22;9.55;;;8.55;;
23588;SDS011;11972;48.078;11.876;2023-02-28T15:09:28;10.10;;;8.43;;
23588;SDS011;11972;48.078;11.876;2023-02-28T15:13:33;15.90;;;11.80;;
23588;SDS011;11972;48.078;11.876;2023-02-28T15:17:36;11.10;;;9.32;;
23588;SDS011;11972;48.078;11.876;2023-02-28T15:21:38;12.20;;;9.52;;
23588;SDS011;11972;48.078;11.876;2023-02-28T15:25:42;8.98;;;8.07;;
23588;SDS011;11972;48.078;11.876;2023-02-28T15:29:44;11.27;;;9.63;;
23588;SDS011;11972;48.078;11.876;2023-02-28T15:33:53;13.68;;;10.45;;
23588;SDS011;11972;48.078;11.876;2023-02-28T15:42:12;9.70;;;8.75;;
23588;SDS011;11972;48.078;11.876;2023-02-28T15:46:20;9.30;;;8.30;;
23588;SDS011;11972;48.078;11.876;2023-02-28T15:50:20;8.88;;;7.82;;
23588;SDS011;11972;48.078;11.876;2023-02-28T15:54:22;10.18;;;7.60;;
23588;SDS011;11972;48.078;11.876;2023-02-28T15:58:24;9.30;;;7.82;;
23588;SDS011;11972;48.078;11.876;2023-02-28T16:02:32;11.82;;;8.88;;
23588;SDS011;11972;48.078;11.876;2023-02-28T16:10:41;9.38;;;8.38;;
23588;SDS011;11972;48.078;11.876;2023-02-28T16:14:41;9.52;;;8.52;;
23588;SDS011;11972;48.078;11.876;2023-02-28T16:18:42;9.23;;;8.30;;
23588;SDS011;11972;48.078;11.876;2023-02-28T16:22:43;26.08;;;17.30;;
23588;SDS011;11972;48.078;11.876;2023-02-28T16:26:45;10.60;;;8.27;;
23588;SDS011;11972;48.078;11.876;2023-02-28T16:30:48;8.48;;;7.60;;
23588;SDS011;11972;48.078;11.876;2023-02-28T16:34:51;10.05;;;8.85;;
23588;SDS011;11972;48.078;11.876;2023-02-28T16:38:51;11.63;;;9.10;;
23588;SDS011;11972;48.078;11.876;2023-02-28T16:42:52;11.10;;;9.77;;
23588;SDS011;11972;48.078;11.876;2023-02-28T16:46:55;12.27;;;8.55;;
23588;SDS011;11972;48.078;11.876;2023-02-28T16:50:57;10.48;;;8.93;;
23588;SDS011;11972;48.078;11.876;2023-02-28T16:54:58;11.55;;;9.10;;
23588;SDS011;11972;48.078;11.876;2023-02-28T16:59:00;11.80;;;9.43;;
23588;SDS011;11972;48.078;11.876;2023-02-28T17:03:01;10.25;;;9.07;;
23588;SDS011;11972;48.078;11.876;2023-02-28T17:07:02;9.45;;;7.93;;
23588;SDS011;11972;48.078;11.876;2023-02-28T17:11:02;9.48;;;7.60;;
23588;SDS011;11972;48.078;11.876;2023-02-28T17:15:03;11.25;;;8.13;;
23588;SDS011;11972;48.078;11.876;2023-02-28T17:19:04;11.80;;;9.35;;
23588;SDS011;11972;48.078;11.876;2023-02-28T17:23:06;13.13;;;9.27;;
23588;SDS011;11972;48.078;11.876;2023-02-28T17:27:09;10.73;;;8.93;;
23588;SDS011;11972;48.078;11.876;2023-02-28T17:31:12;30.23;;;17.58;;
23588;SDS011;11972;48.078;11.876;2023-02-28T17:35:13;11.32;;;9.20;;
23588;SDS011;11972;48.078;11.876;2023-02-28T17:39:14;11.70;;;9.38;;
23588;SDS011;11972;48.078;11.876;2023-02-28T17:43:15;13.98;;;10.30;;
23588;SDS011;11972;48.078;11.876;2023-02-28T17:47:15;13.93;;;10.70;;
23588;SDS011;11972;48.078;11.876;2023-02-28T17:51:16;17.08;;;12.20;;
23588;SDS011;11972;48.078;11.876;2023-02-28T17:55:17;14.13;;;11.10;;
23588;SDS011;11972;48.078;11.876;2023-02-28T17:59:19;14.80;;;10.85;;
23588;SDS011;11972;48.078;11.876;2023-02-28T18:03:19;15.93;;;10.93;;
23588;SDS011;11972;48.078;11.876;2023-02-28T18:07:20;19.58;;;14.00;;
23588;SDS011;11972;48.078;11.876;2023-02-28T18:11:22;22.23;;;15.65;;
23588;SDS011;11972;48.078;11.876;2023-02-28T18:15:23;22.50;;;15.43;;
23588;SDS011;11972;48.078;11.876;2023-02-28T18:19:23;23.92;;;15.15;;
23588;SDS011;11972;48.078;11.876;2023-02-28T18:23:24;27.65;;;17.67;;
23588;SDS011;11972;48.078;11.876;2023-02-28T18:27:24;21.95;;;16.70;;
23588;SDS011;11972;48.078;11.876;2023-02-28T18:31:24;25.13;;;16.20;;
23588;SDS011;11972;48.078;11.876;2023-02-28T18:35:25;21.92;;;14.77;;
23588;SDS011;11972;48.078;11.876;2023-02-28T18:39:35;22.02;;;15.60;;
23588;SDS011;11972;48.078;11.876;2023-02-28T18:43:35;26.17;;;17.08;;
23588;SDS011;11972;48.078;11.876;2023-02-28T18:47:39;22.65;;;16.20;;
23588;SDS011;11972;48.078;11.876;2023-02-28T18:51:39;24.30;;;16.15;;
23588;SDS011;11972;48.078;11.876;2023-02-28T18:55:43;27.13;;;17.50;;
23588;SDS011;11972;48.078;11.876;2023-02-28T18:59:44;26.10;;;17.17;;
23588;SDS011;11972;48.078;11.876;2023-02-28T19:03:44;17.60;;;14.23;;
23588;SDS011;11972;48.078;11.876;2023-02-28T19:07:45;20.25;;;14.43;;
23588;SDS011;11972;48.078;11.876;2023-02-28T19:11:45;19.10;;;14.63;;
23588;SDS011;11972;48.078;11.876;2023-02-28T19:15:46;22.48;;;15.73;;
23588;SDS011;11972;48.078;11.876;2023-02-28T19:19:46;23.40;;;15.13;;
23588;SDS011;11972;48.078;11.876;2023-02-28T19:23:47;27.92;;;18.25;;
23588;SDS011;11972;48.078;11.876;2023-02-28T19:27:48;19.80;;;14.40;;
23588;SDS011;11972;48.078;11.876;2023-02-28T19:31:51;16.23;;;11.50;;
23588;SDS011;11972;48.078;11.876;2023-02-28T19:35:52;15.80;;;12.50;;
23588;SDS011;11972;48.078;11.876;2023-02-28T19:39:52;16.40;;;11.88;;
23588;SDS011;11972;48.078;11.876;2023-02-28T19:43:55;15.63;;;12.60;;
23588;SDS011;11972;48.078;11.876;2023-02-28T19:47:56;16.33;;;12.13;;
23588;SDS011;11972;48.078;11.876;2023-02-28T19:51:56;17.00;;;12.82;;
23588;SDS011;11972;48.078;11.876;2023-02-28T19:55:57;17.10;;;11.93;;
23588;SDS011;11972;48.078;11.876;2023-02-28T19:59:59;15.18;;;12.38;;
23588;SDS011;11972;48.078;11.876;2023-02-28T20:03:59;14.20;;;11.98;;
23588;SDS011;11972;48.078;11.876;2023-02-28T20:08:03;13.20;;;11.60;;
23588;SDS011;11972;48.078;11.876;2023-02-28T20:12:05;14.25;;;11.65;;
23588;SDS011;11972;48.078;11.876;2023-02-28T20:16:07;15.18;;;11.95;;
23588;SDS011;11972;48.078;11.876;2023-02-28T20:20:09;14.10;;;10.80;;
23588;SDS011;11972;48.078;11.876;2023-02-28T20:24:11;14.55;;;10.88;;
23588;SDS011;11972;48.078;11.876;2023-02-28T20:28:11;13.75;;;11.02;;
23588;SDS011;11972;48.078;11.876;2023-02-28T20:32:12;15.20;;;12.02;;
23588;SDS011;11972;48.078;11.876;2023-02-28T20:36:14;13.18;;;11.23;;
23588;SDS011;11972;48.078;11.876;2023-02-28T20:40:16;15.07;;;11.50;;
23588;SDS011;11972;48.078;11.876;2023-02-28T20:44:16;14.60;;;11.55;;
23588;SDS011;11972;48.078;11.876;2023-02-28T20:48:18;14.73;;;11.38;;
23588;SDS011;11972;48.078;11.876;2023-02-28T20:52:18;14.30;;;11.73;;
23588;SDS011;11972;48.078;11.876;2023-02-28T20:56:19;16.88;;;12.15;;
23588;SDS011;11972;48.078;11.876;2023-02-28T21:00:22;15.70;;;11.38;;
23588;SDS011;11972;48.078;11.876;2023-02-28T21:04:25;18.05;;;11.50;;
23588;SDS011;11972;48.078;11.876;2023-02-28T21:08:25;14.05;;;12.55;;
23588;SDS011;11972;48.078;11.876;2023-02-28T21:12:25;13.77;;;11.50;;
23588;SDS011;11972;48.078;11.876;2023-02-28T21:16:26;14.77;;;11.38;;
23588;SDS011;11972;48.078;11.876;2023-02-28T21:20:28;18.38;;;13.23;;
23588;SDS011;11972;48.078;11.876;2023-02-28T21:24:28;23.35;;;16.30;;
23588;SDS011;11972;48.078;11.876;2023-02-28T21:28:29;13.13;;;11.65;;
23588;SDS011;11972;48.078;11.876;2023-02-28T21:32:29;14.48;;;10.82;;
23588;SDS011;11972;48.078;11.876;2023-02-28T21:36:30;14.05;;;10.95;;
23588;SDS011;11972;48.078;11.876;2023-02-28T21:40:34;14.23;;;11.18;;
23588;SDS011;11972;48.078;11.876;2023-02-28T21:44:34;16.20;;;11.80;;
23588;SDS011;11972;48.078;11.876;2023-02-28T21:48:35;18.55;;;13.15;;
23588;SDS011;11972;48.078;11.876;2023-02-28T21:52:37;12.30;;;10.95;;
23588;SDS011;11972;48.078;11.876;2023-02-28T21:56:37;14.95;;;11.32;;
23588;SDS011;11972;48.078;11.876;2023-02-28T22:00:38;14.25;;;11.25;;
23588;SDS011;11972;48.078;11.876;2023-02-28T22:04:40;14.57;;;11.50;;
23588;SDS011;11972;48.078;11.876;2023-02-28T22:08:42;13.52;;;11.15;;
23588;SDS011;11972;48.078;11.876;2023-02-28T22:12:44;13.70;;;11.27;;
23588;SDS011;11972;48.078;11.876;2023-02-28T22:16:44;14.20;;;11.48;;
23588;SDS011;11972;48.078;11.876;2023-02-28T22:20:44;13.95;;;12.07;;
23588;SDS011;11972;48.078;11.876;2023-02-28T22:24:52;16.30;;;11.50;;
23588;SDS011;11972;48.078;11.876;2023-02-28T22:28:53;13.13;;;11.73;;
23588;SDS011;11972;48.078;11.876;2023-02-28T22:32:53;17.17;;;12.40;;
23588;SDS011;11972;48.078;11.876;2023-02-28T22:36:53;16.05;;;11.82;;
23588;SDS011;11972;48.078;11.876;2023-02-28T22:40:55;16.25;;;12.30;;
23588;SDS011;11972;48.078;11.876;2023-02-28T22:44:56;13.38;;;11.45;;
23588;SDS011;11972;48.078;11.876;2023-02-28T22:48:57;16.58;;;12.77;;
23588;SDS011;11972;48.078;11.876;2023-02-28T22:52:58;15.02;;;11.50;;
23588;SDS011;11972;48.078;11.876;2023-02-28T22:56:58;14.27;;;11.90;;
23588;SDS011;11972;48.078;11.876;2023-02-28T23:05:05;14.90;;;10.90;;
23588;SDS011;11972;48.078;11.876;2023-02-28T23:09:07;15.38;;;11.60;;
23588;SDS011;11972;48.078;11.876;2023-02-28T23:13:14;20.73;;;14.57;;
23588;SDS011;11972;48.078;11.876;2023-02-28T23:17:14;14.45;;;11.75;;
23588;SDS011;11972;48.078;11.876;2023-02-28T23:21:14;14.10;;;11.32;;
23588;SDS011;11972;48.078;11.876;2023-02-28T23:25:16;15.30;;;12.45;;
23588;SDS011;11972;48.078;11.876;2023-02-28T23:29:20;14.07;;;11.48;;
23588;SDS011;11972;48.078;11.876;2023-02-28T23:33:21;15.40;;;12.55;;
23588;SDS011;11972;48.078;11.876;2023-02-28T23:37:21;14.73;;;12.15;;
23588;SDS011;11972;48.078;11.876;2023-02-28T23:41:22;14.77;;;12.50;;
23588;SDS011;11972;48.078;11.876;2023-02-28T23:45:23;15.82;;;12.02;;
23588;SDS011;11972;48.078;11.876;2023-02-28T23:49:24;15.75;;;12.38;;
23588;SDS011;11972;48.078;11.876;2023-02-28T23:53:24;19.90;;;12.52;;
23588;SDS011;11972;48.078;11.876;2023-02-28T23:57:25;14.40;;;11.68;;
